createdAt,value
2023-08-29T00:02:23.331Z,4.60
2023-08-29T00:04:49.761Z,3.65
2023-08-29T00:07:16.205Z,3.67
2023-08-29T00:09:42.752Z,3.20
2023-08-29T00:12:09.361Z,5.28
2023-08-29T00:14:35.832Z,4.10
2023-08-29T00:17:02.234Z,4.57
2023-08-29T00:19:28.675Z,4.18
2023-08-29T00:21:55.065Z,3.53
2023-08-29T00:24:21.403Z,6.78
2023-08-29T00:26:47.801Z,3.83
2023-08-29T00:29:14.259Z,5.05
2023-08-29T00:31:40.737Z,4.60
2023-08-29T00:34:07.178Z,4.10
2023-08-29T00:36:33.558Z,5.97
2023-08-29T00:39:00.127Z,5.07
2023-08-29T00:41:26.505Z,5.57
2023-08-29T00:43:52.905Z,4.57
2023-08-29T00:46:20.640Z,4.68
2023-08-29T00:48:47.971Z,7.85
2023-08-29T00:51:14.422Z,6.07
2023-08-29T00:53:41.009Z,5.72
2023-08-29T00:56:07.408Z,4.82
2023-08-29T00:58:35.012Z,5.78
2023-08-29T01:01:01.514Z,6.63
2023-08-29T01:03:28.088Z,5.60
2023-08-29T01:05:54.601Z,5.45
2023-08-29T01:08:21.080Z,6.35
2023-08-29T01:11:17.210Z,4.88
2023-08-29T01:14:07.536Z,6.05
2023-08-29T01:16:41.511Z,6.85
2023-08-29T01:19:16.883Z,7.47
2023-08-29T01:21:50.258Z,6.03
2023-08-29T01:24:27.350Z,8.18
2023-08-29T01:26:55.873Z,5.55
2023-08-29T01:29:23.409Z,6.85
2023-08-29T01:31:51.414Z,8.02
2023-08-29T01:34:18.094Z,7.20
2023-08-29T01:36:44.740Z,6.40
2023-08-29T01:39:11.418Z,5.85
2023-08-29T01:41:37.805Z,7.55
2023-08-29T01:44:06.355Z,5.90
2023-08-29T01:46:32.911Z,6.50
2023-08-29T01:49:02.403Z,7.43
2023-08-29T01:51:29.224Z,11.43
2023-08-29T01:53:55.971Z,7.00
2023-08-29T01:56:25.381Z,6.88
2023-08-29T01:58:54.596Z,7.85
2023-08-29T02:01:23.842Z,6.82
2023-08-29T02:03:51.427Z,5.88
2023-08-29T02:06:17.888Z,5.53
2023-08-29T02:08:45.627Z,7.15
2023-08-29T02:11:12.057Z,5.45
2023-08-29T02:13:38.413Z,5.95
2023-08-29T02:16:05.014Z,6.95
2023-08-29T02:18:31.412Z,6.28
2023-08-29T02:20:57.785Z,5.50
2023-08-29T02:23:24.237Z,8.25
2023-08-29T02:26:04.871Z,4.78
2023-08-29T02:28:34.960Z,8.13
2023-08-29T02:31:10.948Z,5.55
2023-08-29T02:33:39.342Z,7.45
2023-08-29T02:36:06.570Z,6.47
2023-08-29T02:38:34.337Z,5.75
2023-08-29T02:41:01.019Z,6.38
2023-08-29T02:43:30.674Z,6.57
2023-08-29T02:45:58.304Z,7.10
2023-08-29T02:48:25.293Z,7.28
2023-08-29T02:50:52.142Z,6.55
2023-08-29T02:53:19.798Z,5.53
2023-08-29T02:55:46.695Z,6.88
2023-08-29T02:58:13.356Z,5.60
2023-08-29T03:00:39.854Z,6.60
2023-08-29T03:03:06.383Z,6.75
2023-08-29T03:05:33.532Z,6.45
2023-08-29T03:08:09.413Z,6.45
2023-08-29T03:10:37.080Z,5.57
2023-08-29T03:13:03.958Z,5.25
2023-08-29T03:15:34.419Z,6.18
2023-08-29T03:18:01.455Z,6.72
2023-08-29T03:20:28.250Z,7.00
2023-08-29T03:22:54.753Z,8.02
2023-08-29T03:25:23.253Z,6.97
2023-08-29T03:27:50.237Z,7.03
2023-08-29T03:30:16.949Z,6.25
2023-08-29T03:32:43.437Z,6.45
2023-08-29T03:35:09.825Z,5.68
2023-08-29T03:37:36.235Z,6.43
2023-08-29T03:40:03.990Z,6.57
2023-08-29T03:42:30.352Z,7.47
2023-08-29T03:44:56.858Z,8.05
2023-08-29T03:47:25.058Z,5.35
2023-08-29T03:49:51.517Z,6.38
2023-08-29T03:52:25.233Z,5.85
2023-08-29T03:54:56.709Z,4.90
2023-08-29T03:57:29.481Z,5.35
2023-08-29T03:59:56.650Z,6.32
2023-08-29T04:02:23.115Z,7.25
2023-08-29T04:04:52.471Z,6.90
2023-08-29T04:07:19.728Z,6.80
2023-08-29T04:09:46.184Z,9.82
2023-08-29T04:12:12.607Z,7.88
2023-08-29T04:14:38.946Z,8.60
2023-08-29T04:17:05.372Z,7.60
2023-08-29T04:19:31.811Z,7.45
2023-08-29T04:21:58.167Z,9.50
2023-08-29T04:24:26.717Z,8.15
2023-08-29T04:26:53.969Z,8.18
2023-08-29T04:29:20.384Z,8.52
2023-08-29T04:31:48.060Z,8.10
2023-08-29T04:34:14.488Z,9.52
2023-08-29T04:36:40.983Z,10.35
2023-08-29T04:39:07.352Z,8.43
2023-08-29T04:41:33.753Z,8.27
2023-08-29T04:44:00.426Z,7.97
2023-08-29T04:46:26.797Z,9.07
2023-08-29T04:48:53.178Z,9.80
2023-08-29T04:51:19.547Z,9.57
2023-08-29T04:53:48.062Z,9.18
2023-08-29T04:56:14.447Z,13.10
2023-08-29T04:58:40.824Z,11.30
2023-08-29T05:01:07.261Z,9.23
2023-08-29T05:03:33.859Z,9.38
2023-08-29T05:06:00.262Z,10.82
2023-08-29T05:08:26.671Z,8.48
2023-08-29T05:10:53.020Z,9.85
2023-08-29T05:13:19.412Z,10.70
2023-08-29T05:15:45.807Z,10.60
2023-08-29T05:18:12.315Z,10.07
2023-08-29T05:20:39.407Z,13.63
2023-08-29T05:23:06.074Z,12.32
2023-08-29T05:25:32.564Z,10.60
2023-08-29T05:27:58.960Z,11.82
2023-08-29T05:30:25.359Z,10.48
2023-08-29T05:32:51.785Z,11.50
2023-08-29T05:35:18.290Z,10.32
2023-08-29T05:37:45.432Z,11.82
2023-08-29T05:40:14.823Z,10.20
2023-08-29T05:42:41.231Z,11.93
2023-08-29T05:45:09.784Z,10.85
2023-08-29T05:47:36.273Z,11.52
2023-08-29T05:50:02.762Z,11.05
2023-08-29T05:52:29.542Z,11.65
2023-08-29T05:54:57.009Z,15.35
2023-08-29T05:57:23.390Z,11.27
2023-08-29T05:59:50.425Z,12.60
2023-08-29T06:02:16.848Z,13.63
2023-08-29T06:04:43.240Z,13.95
2023-08-29T06:07:10.486Z,12.15
2023-08-29T06:09:37.527Z,18.42
2023-08-29T06:12:04.230Z,11.65
2023-08-29T06:14:32.003Z,13.88
2023-08-29T06:16:58.872Z,14.88
2023-08-29T06:19:25.400Z,16.00
2023-08-29T06:21:52.219Z,14.82
2023-08-29T06:24:18.691Z,14.63
2023-08-29T06:26:45.047Z,14.00
2023-08-29T06:29:11.780Z,13.02
2023-08-29T06:31:38.187Z,12.25
2023-08-29T06:34:04.945Z,14.00
2023-08-29T06:36:32.077Z,13.68
2023-08-29T06:38:58.418Z,13.35
2023-08-29T06:41:25.492Z,13.68
2023-08-29T06:43:51.830Z,20.63
2023-08-29T06:46:18.534Z,14.95
2023-08-29T06:48:44.967Z,17.00
2023-08-29T06:51:11.373Z,20.60
2023-08-29T06:53:38.511Z,15.55
2023-08-29T06:56:05.300Z,16.02
2023-08-29T06:58:31.968Z,16.20
2023-08-29T07:00:58.372Z,17.83
2023-08-29T07:03:24.934Z,18.48
2023-08-29T07:05:51.460Z,15.68
2023-08-29T07:08:17.811Z,17.20
2023-08-29T07:10:44.389Z,15.32
2023-08-29T07:13:10.753Z,20.95
2023-08-29T07:15:37.177Z,15.20
2023-08-29T07:18:06.799Z,16.88
2023-08-29T07:20:34.725Z,17.73
2023-08-29T07:23:01.589Z,17.40
2023-08-29T07:25:42.284Z,17.35
2023-08-29T07:28:10.581Z,19.77
2023-08-29T07:30:47.733Z,19.45
2023-08-29T07:33:15.312Z,19.35
2023-08-29T07:35:43.355Z,19.85
2023-08-29T07:38:10.807Z,22.38
2023-08-29T07:40:37.653Z,19.30
2023-08-29T07:43:05.880Z,21.80
2023-08-29T07:45:33.131Z,21.33
2023-08-29T07:48:00.795Z,20.70
2023-08-29T07:50:28.459Z,21.70
2023-08-29T07:52:56.018Z,20.20
2023-08-29T07:55:22.467Z,21.70
2023-08-29T07:57:49.688Z,23.60
2023-08-29T08:00:17.418Z,25.00
2023-08-29T08:02:44.806Z,20.42
2023-08-29T08:05:16.282Z,20.92
2023-08-29T08:07:45.375Z,22.73
2023-08-29T08:10:13.682Z,23.63
2023-08-29T08:12:41.682Z,29.20
2023-08-29T08:15:09.609Z,26.80
2023-08-29T08:17:37.504Z,28.92
2023-08-29T08:20:09.516Z,28.88
2023-08-29T08:22:41.470Z,33.95
2023-08-29T08:25:11.686Z,29.50
2023-08-29T08:27:42.583Z,34.83
2023-08-29T08:30:12.324Z,31.88
2023-08-29T08:32:38.848Z,31.95
2023-08-29T08:35:08.679Z,36.70
2023-08-29T08:37:36.397Z,34.63
2023-08-29T08:40:11.743Z,35.63
2023-08-29T08:42:40.888Z,33.75
2023-08-29T08:45:08.590Z,30.77
2023-08-29T08:47:36.369Z,32.33
2023-08-29T08:50:04.232Z,30.95
2023-08-29T08:52:35.048Z,27.90
2023-08-29T08:55:05.694Z,29.52
2023-08-29T08:57:33.197Z,29.35
2023-08-29T08:59:59.592Z,31.55
2023-08-29T09:02:27.225Z,34.67
2023-08-29T09:04:54.858Z,29.75
2023-08-29T09:07:21.285Z,30.73
2023-08-29T09:10:11.630Z,30.85
2023-08-29T09:12:50.526Z,30.10
2023-08-29T09:15:21.195Z,37.83
2023-08-29T09:17:52.725Z,34.60
2023-08-29T09:20:20.007Z,32.22
2023-08-29T09:22:47.276Z,34.00
2023-08-29T09:25:15.615Z,37.88
2023-08-29T09:27:46.766Z,38.30
2023-08-29T09:30:15.411Z,41.35
2023-08-29T09:32:50.457Z,42.50
2023-08-29T09:35:20.638Z,43.67
2023-08-29T09:37:52.645Z,43.35
2023-08-29T09:40:36.259Z,43.13
2023-08-29T09:43:05.672Z,40.88
2023-08-29T09:45:33.939Z,42.58
2023-08-29T09:48:05.200Z,47.80
2023-08-29T09:50:32.416Z,45.17
2023-08-29T09:53:00.791Z,51.47
2023-08-29T09:55:27.816Z,47.83
2023-08-29T09:57:54.966Z,48.25
2023-08-29T10:00:22.189Z,44.30
2023-08-29T10:02:51.715Z,45.67
2023-08-29T10:05:25.098Z,44.72
2023-08-29T10:07:56.671Z,45.53
2023-08-29T10:10:25.153Z,44.88
2023-08-29T10:12:52.183Z,45.55
2023-08-29T10:15:19.685Z,40.67
2023-08-29T10:17:49.700Z,41.40
2023-08-29T10:20:18.365Z,41.67
2023-08-29T10:22:47.666Z,37.22
2023-08-29T10:25:19.709Z,40.08
2023-08-29T10:27:46.681Z,38.05
2023-08-29T10:30:13.477Z,43.22
2023-08-29T10:32:40.622Z,38.55
2023-08-29T10:35:08.690Z,38.80
2023-08-29T10:37:35.296Z,40.10
2023-08-29T10:40:12.922Z,40.17
2023-08-29T10:42:58.498Z,38.80
2023-08-29T10:45:58.185Z,38.13
2023-08-29T10:48:31.180Z,38.38
2023-08-29T10:51:18.371Z,42.92
2023-08-29T10:53:57.982Z,35.65
2023-08-29T10:56:28.881Z,35.10
2023-08-29T10:58:56.140Z,34.42
2023-08-29T11:01:25.336Z,35.28
2023-08-29T11:03:52.121Z,37.95
2023-08-29T11:06:20.831Z,38.42
2023-08-29T11:08:47.472Z,35.22
2023-08-29T11:11:19.806Z,38.83
2023-08-29T11:14:02.702Z,31.67
2023-08-29T11:16:31.601Z,31.58
2023-08-29T11:19:07.838Z,33.13
2023-08-29T11:21:34.445Z,32.58
2023-08-29T11:24:14.853Z,31.50
2023-08-29T11:26:45.841Z,24.15
2023-08-29T11:29:12.283Z,21.73
2023-08-29T11:31:44.045Z,18.70
2023-08-29T11:34:18.885Z,17.65
2023-08-29T11:36:50.355Z,16.15
2023-08-29T11:39:19.680Z,18.10
2023-08-29T11:42:05.315Z,14.43
2023-08-29T11:45:41.900Z,12.15
2023-08-29T11:47:22.787Z,15.25
2023-08-29T11:49:50.357Z,11.10
2023-08-29T11:52:17.906Z,11.32
2023-08-29T11:54:54.046Z,11.38
2023-08-29T11:57:21.835Z,10.15
2023-08-29T11:59:51.484Z,8.15
2023-08-29T12:02:20.509Z,8.75
2023-08-29T12:04:48.782Z,10.23
2023-08-29T12:07:19.277Z,8.43
2023-08-29T12:09:47.745Z,9.52
2023-08-29T12:12:34.731Z,14.10
2023-08-29T12:15:01.739Z,12.18
2023-08-29T12:17:39.900Z,12.02
2023-08-29T12:20:16.541Z,10.23
2023-08-29T12:22:49.058Z,11.38
2023-08-29T12:25:17.220Z,9.80
2023-08-29T12:27:45.587Z,11.82
2023-08-29T12:30:15.861Z,12.88
2023-08-29T12:32:43.913Z,12.63
2023-08-29T12:35:11.363Z,11.88
2023-08-29T12:37:38.775Z,10.82
2023-08-29T12:40:09.851Z,13.55
2023-08-29T12:42:38.777Z,10.70
2023-08-29T12:45:07.302Z,12.70
2023-08-29T12:47:33.802Z,13.90
2023-08-29T12:50:00.236Z,14.00
2023-08-29T12:52:26.717Z,13.43
2023-08-29T12:54:53.129Z,14.93
2023-08-29T12:57:20.784Z,13.75
2023-08-29T12:59:47.243Z,12.68
2023-08-29T13:02:13.660Z,12.68
2023-08-29T13:04:40.402Z,12.48
2023-08-29T13:07:06.894Z,11.02
2023-08-29T13:09:38.115Z,12.60
2023-08-29T13:12:07.487Z,13.40
2023-08-29T13:14:38.636Z,15.18
2023-08-29T13:17:06.433Z,15.60
2023-08-29T13:19:34.037Z,19.08
2023-08-29T13:22:02.400Z,17.35
2023-08-29T13:24:29.843Z,21.00
2023-08-29T13:26:56.352Z,17.45
2023-08-29T13:29:22.961Z,18.27
2023-08-29T13:31:51.025Z,18.30
2023-08-29T13:34:19.808Z,18.88
2023-08-29T13:36:46.417Z,18.95
2023-08-29T13:39:13.672Z,20.13
2023-08-29T13:41:40.974Z,22.40
2023-08-29T13:44:07.348Z,21.10
2023-08-29T13:46:33.752Z,20.55
2023-08-29T13:49:00.125Z,22.92
2023-08-29T13:51:26.515Z,22.33
2023-08-29T13:53:53.842Z,22.02
2023-08-29T13:56:20.212Z,24.70
2023-08-29T13:58:46.644Z,25.10
2023-08-29T14:01:14.922Z,24.25
2023-08-29T14:03:41.498Z,24.15
2023-08-29T14:06:08.192Z,26.38
2023-08-29T14:08:34.935Z,22.95
2023-08-29T14:11:06.412Z,22.42
2023-08-29T14:13:34.361Z,20.92
2023-08-29T14:16:04.260Z,27.80
2023-08-29T14:18:37.190Z,22.63
2023-08-29T14:21:03.949Z,20.27
2023-08-29T14:23:30.559Z,18.17
2023-08-29T14:25:57.678Z,20.73
2023-08-29T14:28:26.846Z,19.58
2023-08-29T14:30:53.904Z,17.95
2023-08-29T14:33:20.367Z,17.55
2023-08-29T14:35:46.814Z,16.67
2023-08-29T14:38:14.216Z,17.45
2023-08-29T14:40:40.829Z,16.17
2023-08-29T14:43:07.231Z,17.27
2023-08-29T14:45:37.656Z,16.10
2023-08-29T14:48:04.641Z,16.88
2023-08-29T14:50:31.414Z,14.70
2023-08-29T14:52:57.778Z,13.20
2023-08-29T14:55:25.933Z,9.63
2023-08-29T14:57:54.262Z,9.98
2023-08-29T15:00:21.026Z,11.27
2023-08-29T15:02:47.632Z,9.73
2023-08-29T15:05:14.522Z,9.82
2023-08-29T15:07:41.895Z,12.15
2023-08-29T15:10:09.257Z,9.30
2023-08-29T15:12:36.028Z,11.02
2023-08-29T15:15:02.499Z,10.70
2023-08-29T15:17:31.247Z,12.30
2023-08-29T15:19:58.268Z,10.20
2023-08-29T15:22:24.867Z,10.20
2023-08-29T15:24:51.333Z,9.07
2023-08-29T15:27:17.915Z,9.93
2023-08-29T15:29:44.367Z,10.10
2023-08-29T15:32:10.981Z,8.52
2023-08-29T15:34:37.564Z,10.82
2023-08-29T15:37:05.581Z,8.90
2023-08-29T15:39:33.682Z,8.98
2023-08-29T15:42:00.378Z,8.52
2023-08-29T15:44:31.081Z,8.90
2023-08-29T15:46:57.929Z,8.25
2023-08-29T15:49:24.276Z,6.57
2023-08-29T15:51:50.716Z,6.50
2023-08-29T15:54:18.987Z,8.13
2023-08-29T15:56:45.604Z,7.00
2023-08-29T15:59:12.081Z,7.45
2023-08-29T16:01:38.555Z,8.02
2023-08-29T16:04:05.968Z,6.65
2023-08-29T16:06:32.435Z,8.05
2023-08-29T16:09:01.005Z,6.97
2023-08-29T16:11:27.730Z,7.35
2023-08-29T16:13:54.282Z,7.05
2023-08-29T16:16:20.677Z,7.15
2023-08-29T16:18:47.292Z,6.93
2023-08-29T16:21:16.469Z,6.68
2023-08-29T16:23:46.284Z,5.85
2023-08-29T16:26:21.944Z,6.43
2023-08-29T16:28:49.085Z,6.43
2023-08-29T16:31:15.516Z,7.28
2023-08-29T16:33:42.082Z,7.15
2023-08-29T16:36:09.084Z,5.35
2023-08-29T16:38:35.663Z,8.02
2023-08-29T16:41:03.212Z,5.88
2023-08-29T16:43:29.695Z,9.23
2023-08-29T16:45:56.539Z,6.75
2023-08-29T16:48:22.958Z,5.45
2023-08-29T16:50:50.929Z,3.55
2023-08-29T16:53:19.030Z,3.85
2023-08-29T16:55:46.107Z,3.58
2023-08-29T16:58:13.032Z,3.72
2023-08-29T17:00:39.786Z,5.63
2023-08-29T17:03:11.099Z,4.97
2023-08-29T17:05:38.779Z,3.90
2023-08-29T17:08:08.873Z,3.15
2023-08-29T17:10:35.688Z,3.22
2023-08-29T17:13:02.230Z,2.60
2023-08-29T17:15:29.029Z,2.67
2023-08-29T17:17:55.506Z,2.65
2023-08-29T17:20:23.599Z,3.15
2023-08-29T17:22:50.462Z,2.10
2023-08-29T17:25:17.345Z,2.00
2023-08-29T17:27:43.936Z,2.25
2023-08-29T17:30:12.607Z,3.92
2023-08-29T17:32:39.340Z,2.45
2023-08-29T17:35:06.231Z,2.33
2023-08-29T17:37:34.502Z,3.22
2023-08-29T17:40:01.777Z,2.53
2023-08-29T17:42:28.190Z,3.42
2023-08-29T17:44:56.719Z,2.38
2023-08-29T17:47:23.268Z,2.17
2023-08-29T17:49:52.023Z,3.40
2023-08-29T17:52:18.498Z,3.03
2023-08-29T17:54:45.039Z,3.20
2023-08-29T17:57:11.597Z,4.03
2023-08-29T17:59:38.180Z,2.15
2023-08-29T18:02:05.276Z,2.33
2023-08-29T18:04:32.157Z,3.45
2023-08-29T18:06:58.589Z,3.33
2023-08-29T18:09:24.946Z,1.80
2023-08-29T18:11:51.364Z,2.97
2023-08-29T18:14:17.724Z,1.45
2023-08-29T18:16:45.238Z,2.05
2023-08-29T18:19:11.867Z,2.97
2023-08-29T18:21:39.080Z,1.90
2023-08-29T18:24:05.728Z,1.90
2023-08-29T18:26:32.907Z,1.92
2023-08-29T18:28:59.339Z,2.58
2023-08-29T18:31:25.702Z,3.03
2023-08-29T18:33:52.208Z,3.95
2023-08-29T18:36:18.563Z,1.85
2023-08-29T18:38:45.111Z,2.72
2023-08-29T18:41:11.502Z,3.35
2023-08-29T18:43:39.791Z,3.90
2023-08-29T18:46:08.146Z,3.88
2023-08-29T18:48:34.702Z,3.03
2023-08-29T18:51:01.138Z,5.65
2023-08-29T18:53:27.901Z,5.40
2023-08-29T18:55:54.386Z,5.75
2023-08-29T18:58:20.959Z,5.57
2023-08-29T19:00:47.442Z,4.35
2023-08-29T19:03:13.841Z,4.30
2023-08-29T19:05:41.082Z,5.53
2023-08-29T19:08:07.795Z,5.60
2023-08-29T19:10:34.562Z,7.68
2023-08-29T19:13:01.744Z,5.13
2023-08-29T19:15:28.211Z,4.53
2023-08-29T19:17:54.649Z,5.70
2023-08-29T19:20:21.158Z,4.25
2023-08-29T19:22:47.687Z,5.18
2023-08-29T19:25:14.148Z,3.92
2023-08-29T19:27:40.534Z,5.40
2023-08-29T19:30:09.802Z,4.45
2023-08-29T19:32:37.425Z,5.00
2023-08-29T19:35:05.046Z,5.30
2023-08-29T19:37:32.278Z,5.03
2023-08-29T19:39:58.685Z,4.30
2023-08-29T19:42:25.153Z,4.13
2023-08-29T19:44:52.094Z,7.30
2023-08-29T19:47:20.148Z,6.50
2023-08-29T19:49:48.406Z,7.65
2023-08-29T19:52:15.061Z,5.55
2023-08-29T19:54:42.061Z,4.80
2023-08-29T19:57:08.491Z,7.78
2023-08-29T19:59:36.355Z,4.28
2023-08-29T20:02:03.106Z,6.97
2023-08-29T20:04:29.621Z,7.20
2023-08-29T20:06:56.177Z,5.72
2023-08-29T20:09:23.626Z,7.20
2023-08-29T20:11:50.123Z,6.43
2023-08-29T20:14:16.545Z,4.88
2023-08-29T20:16:43.877Z,7.25
2023-08-29T20:19:10.659Z,5.75
2023-08-29T20:21:37.312Z,5.47
2023-08-29T20:24:04.614Z,7.65
2023-08-29T20:26:32.586Z,5.88
2023-08-29T20:29:00.701Z,6.95
2023-08-29T20:31:27.514Z,9.07
2023-08-29T20:33:54.150Z,6.15
2023-08-29T20:36:20.605Z,6.35
2023-08-29T20:38:47.102Z,9.35
2023-08-29T20:41:14.190Z,5.20
2023-08-29T20:43:40.704Z,6.45
2023-08-29T20:46:08.316Z,6.35
2023-08-29T20:48:35.072Z,5.25
2023-08-29T20:51:02.557Z,8.65
2023-08-29T20:53:31.939Z,7.40
2023-08-29T20:55:59.167Z,6.43
2023-08-29T20:58:27.186Z,5.88
2023-08-29T21:01:00.776Z,7.53
2023-08-29T21:03:29.100Z,5.30
2023-08-29T21:05:56.199Z,6.30
2023-08-29T21:08:24.110Z,7.50
2023-08-29T21:10:51.623Z,7.22
2023-08-29T21:13:18.132Z,5.60
2023-08-29T21:15:45.851Z,5.85
2023-08-29T21:18:16.397Z,7.10
2023-08-29T21:20:53.599Z,7.38
2023-08-29T21:23:20.006Z,6.97
2023-08-29T21:25:50.553Z,8.25
2023-08-29T21:28:18.122Z,6.88
2023-08-29T21:30:45.944Z,7.47
2023-08-29T21:33:13.229Z,6.60
2023-08-29T21:35:40.786Z,8.05
2023-08-29T21:38:08.485Z,6.07
2023-08-29T21:40:40.523Z,5.38
2023-08-29T21:43:11.731Z,6.20
2023-08-29T21:45:40.035Z,6.35
2023-08-29T21:48:08.211Z,5.32
2023-08-29T21:50:39.233Z,8.27
2023-08-29T21:53:10.592Z,5.93
2023-08-29T21:55:38.483Z,8.65
2023-08-29T21:58:06.347Z,5.28
2023-08-29T22:00:34.258Z,6.45
2023-08-29T22:03:02.266Z,5.00
2023-08-29T22:05:30.231Z,5.28
2023-08-29T22:07:57.392Z,4.53
2023-08-29T22:10:24.327Z,4.97
2023-08-29T22:12:51.280Z,5.10
2023-08-29T22:15:18.110Z,5.93
2023-08-29T22:17:46.137Z,5.05
2023-08-29T22:20:13.481Z,4.95
2023-08-29T22:22:40.421Z,7.10
2023-08-29T22:25:07.428Z,6.43
2023-08-29T22:27:33.918Z,4.93
2023-08-29T22:30:00.404Z,4.50
2023-08-29T22:32:26.967Z,4.38
2023-08-29T22:34:53.363Z,4.18
2023-08-29T22:37:19.847Z,3.92
2023-08-29T22:39:49.466Z,5.88
2023-08-29T22:42:16.961Z,3.97
2023-08-29T22:44:44.227Z,4.18
2023-08-29T22:47:11.441Z,3.78
2023-08-29T22:49:37.938Z,6.60
2023-08-29T22:52:04.823Z,4.75
2023-08-29T22:54:31.803Z,3.55
2023-08-29T22:56:59.096Z,5.30
2023-08-29T22:59:26.989Z,4.03
2023-08-29T23:01:54.340Z,4.38
2023-08-29T23:04:20.784Z,4.28
2023-08-29T23:06:47.173Z,4.75
2023-08-29T23:09:13.603Z,3.50
2023-08-29T23:11:40.824Z,5.28
2023-08-29T23:14:07.286Z,5.30
2023-08-29T23:16:33.848Z,3.40
2023-08-29T23:19:00.262Z,5.07
2023-08-29T23:21:26.659Z,3.50
2023-08-29T23:23:55.049Z,3.25
2023-08-29T23:26:21.560Z,3.55
2023-08-29T23:28:48.030Z,4.03
2023-08-29T23:31:14.452Z,4.85
2023-08-29T23:33:51.734Z,6.38
2023-08-29T23:36:18.992Z,3.45
2023-08-29T23:38:45.394Z,4.55
2023-08-29T23:41:14.366Z,5.18
2023-08-29T23:43:40.971Z,4.90
2023-08-29T23:46:07.641Z,9.52
2023-08-29T23:48:34.587Z,4.20
2023-08-29T23:51:02.065Z,6.15
2023-08-29T23:53:28.451Z,4.72
2023-08-29T23:55:54.906Z,5.03
2023-08-29T23:58:21.289Z,6.25
